sensor_id;sensor_type;location;lat;lon;timestamp;temperature;humidity
9329;DHT22;4703;48.748;19.142;2023-11-19T00:01:08;1.60;99.90
9329;DHT22;4703;48.748;19.142;2023-11-19T00:03:35;1.50;99.90
9329;DHT22;4703;48.748;19.142;2023-11-19T00:06:02;1.50;99.90
9329;DHT22;4703;48.748;19.142;2023-11-19T00:08:31;1.50;99.90
9329;DHT22;4703;48.748;19.142;2023-11-19T00:10:58;1.40;99.90
9329;DHT22;4703;48.748;19.142;2023-11-19T00:13:25;1.40;99.90
9329;DHT22;4703;48.748;19.142;2023-11-19T00:15:52;1.40;99.90
9329;DHT22;4703;48.748;19.142;2023-11-19T00:18:19;1.30;99.90
9329;DHT22;4703;48.748;19.142;2023-11-19T00:20:47;1.30;99.90
9329;DHT22;4703;48.748;19.142;2023-11-19T00:23:14;1.30;99.90
9329;DHT22;4703;48.748;19.142;2023-11-19T00:25:41;1.30;99.90
9329;DHT22;4703;48.748;19.142;2023-11-19T00:28:08;1.30;99.90
9329;DHT22;4703;48.748;19.142;2023-11-19T00:30:35;1.30;99.90
9329;DHT22;4703;48.748;19.142;2023-11-19T00:33:02;1.30;99.90
9329;DHT22;4703;48.748;19.142;2023-11-19T00:35:29;1.30;99.90
9329;DHT22;4703;48.748;19.142;2023-11-19T00:37:58;1.30;99.90
9329;DHT22;4703;48.748;19.142;2023-11-19T00:40:25;1.30;99.90
9329;DHT22;4703;48.748;19.142;2023-11-19T00:42:52;1.20;99.90
9329;DHT22;4703;48.748;19.142;2023-11-19T00:45:19;1.30;99.90
9329;DHT22;4703;48.748;19.142;2023-11-19T00:47:46;1.20;99.90
9329;DHT22;4703;48.748;19.142;2023-11-19T00:50:13;1.20;99.90
9329;DHT22;4703;48.748;19.142;2023-11-19T00:52:41;1.10;99.90
9329;DHT22;4703;48.748;19.142;2023-11-19T00:55:08;1.10;99.90
9329;DHT22;4703;48.748;19.142;2023-11-19T00:57:35;1.10;99.90
9329;DHT22;4703;48.748;19.142;2023-11-19T01:00:04;1.10;99.90
9329;DHT22;4703;48.748;19.142;2023-11-19T01:02:46;1.00;99.90
9329;DHT22;4703;48.748;19.142;2023-11-19T01:05:16;1.00;99.90
9329;DHT22;4703;48.748;19.142;2023-11-19T01:07:48;1.00;99.90
9329;DHT22;4703;48.748;19.142;2023-11-19T01:10:15;1.00;99.90
9329;DHT22;4703;48.748;19.142;2023-11-19T01:12:42;1.00;99.90
9329;DHT22;4703;48.748;19.142;2023-11-19T01:15:09;1.00;99.90
9329;DHT22;4703;48.748;19.142;2023-11-19T01:17:37;1.00;99.90
9329;DHT22;4703;48.748;19.142;2023-11-19T01:20:05;1.00;99.90
9329;DHT22;4703;48.748;19.142;2023-11-19T01:22:33;1.00;99.90
9329;DHT22;4703;48.748;19.142;2023-11-19T01:25:00;1.00;99.90
9329;DHT22;4703;48.748;19.142;2023-11-19T01:27:27;1.00;99.90
9329;DHT22;4703;48.748;19.142;2023-11-19T01:29:54;0.90;99.90
9329;DHT22;4703;48.748;19.142;2023-11-19T01:32:21;0.90;99.90
9329;DHT22;4703;48.748;19.142;2023-11-19T01:34:50;0.90;99.90
9329;DHT22;4703;48.748;19.142;2023-11-19T01:37:17;0.90;99.90
9329;DHT22;4703;48.748;19.142;2023-11-19T01:39:44;0.90;99.90
9329;DHT22;4703;48.748;19.142;2023-11-19T01:42:24;0.90;99.90
9329;DHT22;4703;48.748;19.142;2023-11-19T01:44:59;0.90;99.90
9329;DHT22;4703;48.748;19.142;2023-11-19T01:47:27;0.90;99.90
9329;DHT22;4703;48.748;19.142;2023-11-19T01:49:56;1.30;99.90
9329;DHT22;4703;48.748;19.142;2023-11-19T01:52:23;1.00;99.90
9329;DHT22;4703;48.748;19.142;2023-11-19T01:54:53;0.90;99.90
9329;DHT22;4703;48.748;19.142;2023-11-19T01:57:22;0.90;99.90
9329;DHT22;4703;48.748;19.142;2023-11-19T01:59:51;0.90;99.90
9329;DHT22;4703;48.748;19.142;2023-11-19T02:02:19;0.80;99.90
9329;DHT22;4703;48.748;19.142;2023-11-19T02:04:50;0.80;99.90
9329;DHT22;4703;48.748;19.142;2023-11-19T02:07:18;0.80;99.90
9329;DHT22;4703;48.748;19.142;2023-11-19T02:09:45;0.80;99.90
9329;DHT22;4703;48.748;19.142;2023-11-19T02:12:12;0.80;99.90
9329;DHT22;4703;48.748;19.142;2023-11-19T02:14:39;0.80;99.90
9329;DHT22;4703;48.748;19.142;2023-11-19T02:17:07;0.80;99.90
9329;DHT22;4703;48.748;19.142;2023-11-19T02:19:33;0.80;99.90
9329;DHT22;4703;48.748;19.142;2023-11-19T02:22:00;0.70;99.90
9329;DHT22;4703;48.748;19.142;2023-11-19T02:24:29;0.70;99.90
9329;DHT22;4703;48.748;19.142;2023-11-19T02:27:10;0.70;99.90
9329;DHT22;4703;48.748;19.142;2023-11-19T02:29:43;0.70;99.90
9329;DHT22;4703;48.748;19.142;2023-11-19T02:32:10;0.80;99.90
9329;DHT22;4703;48.748;19.142;2023-11-19T02:34:40;0.70;99.90
9329;DHT22;4703;48.748;19.142;2023-11-19T02:37:07;0.70;99.90
9329;DHT22;4703;48.748;19.142;2023-11-19T02:39:34;0.70;99.90
9329;DHT22;4703;48.748;19.142;2023-11-19T02:42:01;0.60;99.90
9329;DHT22;4703;48.748;19.142;2023-11-19T02:44:28;0.70;99.90
9329;DHT22;4703;48.748;19.142;2023-11-19T02:46:57;0.60;99.90
9329;DHT22;4703;48.748;19.142;2023-11-19T02:49:26;0.70;99.90
9329;DHT22;4703;48.748;19.142;2023-11-19T02:51:53;0.60;99.90
9329;DHT22;4703;48.748;19.142;2023-11-19T02:54:20;0.60;99.90
9329;DHT22;4703;48.748;19.142;2023-11-19T02:56:48;0.60;99.90
9329;DHT22;4703;48.748;19.142;2023-11-19T02:59:21;0.60;99.90
9329;DHT22;4703;48.748;19.142;2023-11-19T03:01:54;0.70;99.90
9329;DHT22;4703;48.748;19.142;2023-11-19T03:04:22;0.70;99.90
9329;DHT22;4703;48.748;19.142;2023-11-19T03:06:49;0.60;99.90
9329;DHT22;4703;48.748;19.142;2023-11-19T03:09:16;0.60;99.90
9329;DHT22;4703;48.748;19.142;2023-11-19T03:11:43;0.60;99.90
9329;DHT22;4703;48.748;19.142;2023-11-19T03:14:10;0.60;99.90
9329;DHT22;4703;48.748;19.142;2023-11-19T03:16:37;0.60;99.90
9329;DHT22;4703;48.748;19.142;2023-11-19T03:19:04;0.50;99.90
9329;DHT22;4703;48.748;19.142;2023-11-19T03:21:31;0.60;99.90
9329;DHT22;4703;48.748;19.142;2023-11-19T03:23:58;0.50;99.90
9329;DHT22;4703;48.748;19.142;2023-11-19T03:26:27;0.60;99.90
9329;DHT22;4703;48.748;19.142;2023-11-19T03:28:54;0.50;99.90
9329;DHT22;4703;48.748;19.142;2023-11-19T03:31:22;0.50;99.90
9329;DHT22;4703;48.748;19.142;2023-11-19T03:33:49;0.60;99.90
9329;DHT22;4703;48.748;19.142;2023-11-19T03:36:16;-0.60;99.90
9329;DHT22;4703;48.748;19.142;2023-11-19T03:38:44;0.50;99.90
9329;DHT22;4703;48.748;19.142;2023-11-19T03:41:14;0.50;99.90
9329;DHT22;4703;48.748;19.142;2023-11-19T03:43:41;0.50;99.90
9329;DHT22;4703;48.748;19.142;2023-11-19T03:46:21;0.50;99.90
9329;DHT22;4703;48.748;19.142;2023-11-19T03:48:49;0.50;99.90
9329;DHT22;4703;48.748;19.142;2023-11-19T03:51:16;0.40;99.90
9329;DHT22;4703;48.748;19.142;2023-11-19T03:53:47;0.40;99.90
9329;DHT22;4703;48.748;19.142;2023-11-19T03:56:14;0.40;99.90
9329;DHT22;4703;48.748;19.142;2023-11-19T03:58:41;0.40;99.90
9329;DHT22;4703;48.748;19.142;2023-11-19T04:01:12;0.40;99.90
9329;DHT22;4703;48.748;19.142;2023-11-19T04:03:45;0.40;99.90
9329;DHT22;4703;48.748;19.142;2023-11-19T04:06:15;0.30;99.90
9329;DHT22;4703;48.748;19.142;2023-11-19T04:08:42;0.30;99.90
9329;DHT22;4703;48.748;19.142;2023-11-19T04:11:09;0.30;99.90
9329;DHT22;4703;48.748;19.142;2023-11-19T04:13:37;0.30;99.90
9329;DHT22;4703;48.748;19.142;2023-11-19T04:16:04;0.20;99.90
9329;DHT22;4703;48.748;19.142;2023-11-19T04:18:31;0.30;99.90
9329;DHT22;4703;48.748;19.142;2023-11-19T04:20:58;0.70;99.90
9329;DHT22;4703;48.748;19.142;2023-11-19T04:23:25;0.30;99.90
9329;DHT22;4703;48.748;19.142;2023-11-19T04:25:52;0.30;99.90
9329;DHT22;4703;48.748;19.142;2023-11-19T04:28:19;0.20;99.90
9329;DHT22;4703;48.748;19.142;2023-11-19T04:30:46;0.30;99.90
9329;DHT22;4703;48.748;19.142;2023-11-19T04:33:13;0.20;99.90
9329;DHT22;4703;48.748;19.142;2023-11-19T04:35:41;0.20;99.90
9329;DHT22;4703;48.748;19.142;2023-11-19T04:38:08;0.30;99.90
9329;DHT22;4703;48.748;19.142;2023-11-19T04:40:35;0.30;99.90
9329;DHT22;4703;48.748;19.142;2023-11-19T04:43:02;0.30;99.90
9329;DHT22;4703;48.748;19.142;2023-11-19T04:45:29;0.30;99.90
9329;DHT22;4703;48.748;19.142;2023-11-19T04:47:56;0.30;99.90
9329;DHT22;4703;48.748;19.142;2023-11-19T04:50:23;0.30;99.90
9329;DHT22;4703;48.748;19.142;2023-11-19T04:52:52;1.40;99.90
9329;DHT22;4703;48.748;19.142;2023-11-19T04:55:20;0.40;99.90
9329;DHT22;4703;48.748;19.142;2023-11-19T04:57:47;0.30;99.90
9329;DHT22;4703;48.748;19.142;2023-11-19T05:00:14;0.30;99.90
9329;DHT22;4703;48.748;19.142;2023-11-19T05:02:43;0.30;99.90
9329;DHT22;4703;48.748;19.142;2023-11-19T05:05:10;0.30;99.90
9329;DHT22;4703;48.748;19.142;2023-11-19T05:07:38;0.40;99.90
9329;DHT22;4703;48.748;19.142;2023-11-19T05:10:05;0.40;99.90
9329;DHT22;4703;48.748;19.142;2023-11-19T05:12:33;0.30;99.90
9329;DHT22;4703;48.748;19.142;2023-11-19T05:15:00;0.40;99.90
9329;DHT22;4703;48.748;19.142;2023-11-19T05:17:27;0.40;99.90
9329;DHT22;4703;48.748;19.142;2023-11-19T05:19:55;0.40;99.90
9329;DHT22;4703;48.748;19.142;2023-11-19T05:22:22;3.00;99.90
9329;DHT22;4703;48.748;19.142;2023-11-19T05:24:49;0.40;99.90
9329;DHT22;4703;48.748;19.142;2023-11-19T05:27:16;0.40;99.90
9329;DHT22;4703;48.748;19.142;2023-11-19T05:29:43;0.40;99.90
9329;DHT22;4703;48.748;19.142;2023-11-19T05:32:10;0.40;99.90
9329;DHT22;4703;48.748;19.142;2023-11-19T05:34:38;0.30;99.90
9329;DHT22;4703;48.748;19.142;2023-11-19T05:37:18;0.30;99.90
9329;DHT22;4703;48.748;19.142;2023-11-19T05:39:45;0.30;99.90
9329;DHT22;4703;48.748;19.142;2023-11-19T05:42:12;0.30;99.90
9329;DHT22;4703;48.748;19.142;2023-11-19T05:44:39;0.40;99.90
9329;DHT22;4703;48.748;19.142;2023-11-19T05:47:07;0.40;99.90
9329;DHT22;4703;48.748;19.142;2023-11-19T05:49:34;0.40;99.90
9329;DHT22;4703;48.748;19.142;2023-11-19T05:52:02;0.40;99.90
9329;DHT22;4703;48.748;19.142;2023-11-19T05:54:30;0.90;99.90
9329;DHT22;4703;48.748;19.142;2023-11-19T05:56:58;0.40;99.90
9329;DHT22;4703;48.748;19.142;2023-11-19T05:59:25;0.40;99.90
9329;DHT22;4703;48.748;19.142;2023-11-19T06:01:52;0.40;99.90
9329;DHT22;4703;48.748;19.142;2023-11-19T06:04:19;0.40;99.90
9329;DHT22;4703;48.748;19.142;2023-11-19T06:06:46;0.40;99.90
9329;DHT22;4703;48.748;19.142;2023-11-19T06:09:14;0.30;99.90
9329;DHT22;4703;48.748;19.142;2023-11-19T06:11:41;0.40;99.90
9329;DHT22;4703;48.748;19.142;2023-11-19T06:14:08;0.40;99.90
9329;DHT22;4703;48.748;19.142;2023-11-19T06:16:35;0.40;99.90
9329;DHT22;4703;48.748;19.142;2023-11-19T06:19:03;0.50;99.90
9329;DHT22;4703;48.748;19.142;2023-11-19T06:21:31;0.50;99.90
9329;DHT22;4703;48.748;19.142;2023-11-19T06:23:58;0.40;99.90
9329;DHT22;4703;48.748;19.142;2023-11-19T06:26:26;0.40;99.90
9329;DHT22;4703;48.748;19.142;2023-11-19T06:28:53;0.50;99.90
9329;DHT22;4703;48.748;19.142;2023-11-19T06:31:20;0.40;99.90
9329;DHT22;4703;48.748;19.142;2023-11-19T06:33:48;0.50;99.90
9329;DHT22;4703;48.748;19.142;2023-11-19T06:36:15;0.50;99.90
9329;DHT22;4703;48.748;19.142;2023-11-19T06:38:43;0.50;99.90
9329;DHT22;4703;48.748;19.142;2023-11-19T06:41:10;0.50;99.90
9329;DHT22;4703;48.748;19.142;2023-11-19T06:43:38;0.60;99.90
9329;DHT22;4703;48.748;19.142;2023-11-19T06:46:17;0.60;99.90
9329;DHT22;4703;48.748;19.142;2023-11-19T06:48:44;0.60;99.90
9329;DHT22;4703;48.748;19.142;2023-11-19T06:51:12;0.60;99.90
9329;DHT22;4703;48.748;19.142;2023-11-19T06:53:39;0.70;99.90
9329;DHT22;4703;48.748;19.142;2023-11-19T06:56:20;0.80;99.90
9329;DHT22;4703;48.748;19.142;2023-11-19T06:58:48;0.80;99.90
9329;DHT22;4703;48.748;19.142;2023-11-19T07:01:17;0.80;99.90
9329;DHT22;4703;48.748;19.142;2023-11-19T07:03:48;0.80;99.90
9329;DHT22;4703;48.748;19.142;2023-11-19T07:06:16;0.90;99.90
9329;DHT22;4703;48.748;19.142;2023-11-19T07:08:43;0.90;99.90
9329;DHT22;4703;48.748;19.142;2023-11-19T07:11:13;1.00;99.90
9329;DHT22;4703;48.748;19.142;2023-11-19T07:13:42;0.90;99.90
9329;DHT22;4703;48.748;19.142;2023-11-19T07:16:10;1.00;99.90
9329;DHT22;4703;48.748;19.142;2023-11-19T07:18:36;1.00;99.90
9329;DHT22;4703;48.748;19.142;2023-11-19T07:21:04;1.10;99.90
9329;DHT22;4703;48.748;19.142;2023-11-19T07:23:32;1.10;99.90
9329;DHT22;4703;48.748;19.142;2023-11-19T07:26:00;1.20;99.90
9329;DHT22;4703;48.748;19.142;2023-11-19T07:28:28;1.20;99.90
9329;DHT22;4703;48.748;19.142;2023-11-19T07:30:55;1.20;99.90
9329;DHT22;4703;48.748;19.142;2023-11-19T07:33:23;2.80;99.90
9329;DHT22;4703;48.748;19.142;2023-11-19T07:35:50;1.20;99.90
9329;DHT22;4703;48.748;19.142;2023-11-19T07:38:17;1.20;99.90
9329;DHT22;4703;48.748;19.142;2023-11-19T07:40:44;1.20;99.90
9329;DHT22;4703;48.748;19.142;2023-11-19T07:43:22;1.20;99.90
9329;DHT22;4703;48.748;19.142;2023-11-19T07:45:49;1.30;99.90
9329;DHT22;4703;48.748;19.142;2023-11-19T07:48:17;1.30;99.90
9329;DHT22;4703;48.748;19.142;2023-11-19T07:50:49;1.40;99.90
9329;DHT22;4703;48.748;19.142;2023-11-19T07:53:19;1.40;99.90
9329;DHT22;4703;48.748;19.142;2023-11-19T07:55:46;1.40;99.90
9329;DHT22;4703;48.748;19.142;2023-11-19T07:58:13;1.50;99.90
9329;DHT22;4703;48.748;19.142;2023-11-19T08:00:40;1.50;99.90
9329;DHT22;4703;48.748;19.142;2023-11-19T08:03:08;1.50;99.90
9329;DHT22;4703;48.748;19.142;2023-11-19T08:05:36;1.60;99.90
9329;DHT22;4703;48.748;19.142;2023-11-19T08:08:03;1.60;99.90
9329;DHT22;4703;48.748;19.142;2023-11-19T08:10:30;1.50;99.90
9329;DHT22;4703;48.748;19.142;2023-11-19T08:12:57;1.60;99.90
9329;DHT22;4703;48.748;19.142;2023-11-19T08:15:24;1.50;99.90
9329;DHT22;4703;48.748;19.142;2023-11-19T08:17:54;1.70;99.90
9329;DHT22;4703;48.748;19.142;2023-11-19T08:20:21;1.80;99.90
9329;DHT22;4703;48.748;19.142;2023-11-19T08:22:48;1.70;99.90
9329;DHT22;4703;48.748;19.142;2023-11-19T08:25:15;1.90;99.90
9329;DHT22;4703;48.748;19.142;2023-11-19T08:27:42;1.90;99.90
9329;DHT22;4703;48.748;19.142;2023-11-19T08:30:10;1.90;99.90
9329;DHT22;4703;48.748;19.142;2023-11-19T08:32:37;1.90;99.90
9329;DHT22;4703;48.748;19.142;2023-11-19T08:35:04;2.00;99.90
9329;DHT22;4703;48.748;19.142;2023-11-19T08:37:32;2.00;99.90
9329;DHT22;4703;48.748;19.142;2023-11-19T08:39:59;2.00;99.90
9329;DHT22;4703;48.748;19.142;2023-11-19T08:42:27;2.00;99.90
9329;DHT22;4703;48.748;19.142;2023-11-19T08:44:54;1.90;99.90
9329;DHT22;4703;48.748;19.142;2023-11-19T08:47:21;2.00;99.90
9329;DHT22;4703;48.748;19.142;2023-11-19T08:49:52;2.00;99.90
9329;DHT22;4703;48.748;19.142;2023-11-19T08:52:22;2.10;99.90
9329;DHT22;4703;48.748;19.142;2023-11-19T08:54:49;2.20;99.90
9329;DHT22;4703;48.748;19.142;2023-11-19T08:57:16;2.20;99.90
9329;DHT22;4703;48.748;19.142;2023-11-19T08:59:43;2.10;99.90
9329;DHT22;4703;48.748;19.142;2023-11-19T09:02:12;2.20;99.90
9329;DHT22;4703;48.748;19.142;2023-11-19T09:04:39;2.20;99.90
9329;DHT22;4703;48.748;19.142;2023-11-19T09:07:08;2.20;99.90
9329;DHT22;4703;48.748;19.142;2023-11-19T09:09:36;2.10;99.90
9329;DHT22;4703;48.748;19.142;2023-11-19T09:12:03;2.20;99.90
9329;DHT22;4703;48.748;19.142;2023-11-19T09:14:30;2.20;99.90
9329;DHT22;4703;48.748;19.142;2023-11-19T09:16:57;2.20;99.90
9329;DHT22;4703;48.748;19.142;2023-11-19T09:19:25;2.30;99.90
9329;DHT22;4703;48.748;19.142;2023-11-19T09:21:53;2.30;99.90
9329;DHT22;4703;48.748;19.142;2023-11-19T09:24:20;2.30;99.90
9329;DHT22;4703;48.748;19.142;2023-11-19T09:26:47;2.40;99.90
9329;DHT22;4703;48.748;19.142;2023-11-19T09:29:14;2.40;99.90
9329;DHT22;4703;48.748;19.142;2023-11-19T09:31:41;2.40;99.90
9329;DHT22;4703;48.748;19.142;2023-11-19T09:34:08;2.40;99.90
9329;DHT22;4703;48.748;19.142;2023-11-19T09:36:35;2.40;99.90
9329;DHT22;4703;48.748;19.142;2023-11-19T09:39:03;2.50;99.90
9329;DHT22;4703;48.748;19.142;2023-11-19T09:41:31;2.50;99.90
9329;DHT22;4703;48.748;19.142;2023-11-19T09:43:59;2.50;99.90
9329;DHT22;4703;48.748;19.142;2023-11-19T09:46:26;2.50;99.90
9329;DHT22;4703;48.748;19.142;2023-11-19T09:48:57;2.60;99.90
9329;DHT22;4703;48.748;19.142;2023-11-19T09:51:26;2.60;99.90
9329;DHT22;4703;48.748;19.142;2023-11-19T09:53:53;2.60;99.90
9329;DHT22;4703;48.748;19.142;2023-11-19T09:56:20;2.60;99.90
9329;DHT22;4703;48.748;19.142;2023-11-19T09:58:47;2.70;99.90
9329;DHT22;4703;48.748;19.142;2023-11-19T10:01:14;2.80;99.90
9329;DHT22;4703;48.748;19.142;2023-11-19T10:03:46;2.80;99.90
9329;DHT22;4703;48.748;19.142;2023-11-19T10:06:15;2.80;99.90
9329;DHT22;4703;48.748;19.142;2023-11-19T10:08:43;2.80;99.90
9329;DHT22;4703;48.748;19.142;2023-11-19T10:11:10;2.80;99.90
9329;DHT22;4703;48.748;19.142;2023-11-19T10:13:39;5.80;99.90
9329;DHT22;4703;48.748;19.142;2023-11-19T10:16:11;2.90;99.90
9329;DHT22;4703;48.748;19.142;2023-11-19T10:18:49;2.90;99.90
9329;DHT22;4703;48.748;19.142;2023-11-19T10:21:19;2.80;99.90
9329;DHT22;4703;48.748;19.142;2023-11-19T10:23:54;2.90;99.90
9329;DHT22;4703;48.748;19.142;2023-11-19T10:26:23;2.90;99.90
9329;DHT22;4703;48.748;19.142;2023-11-19T10:28:51;2.90;99.90
9329;DHT22;4703;48.748;19.142;2023-11-19T10:31:19;2.90;99.90
9329;DHT22;4703;48.748;19.142;2023-11-19T10:33:52;3.40;99.90
9329;DHT22;4703;48.748;19.142;2023-11-19T10:36:19;2.80;99.90
9329;DHT22;4703;48.748;19.142;2023-11-19T10:38:54;2.80;99.90
9329;DHT22;4703;48.748;19.142;2023-11-19T10:41:31;2.80;99.90
9329;DHT22;4703;48.748;19.142;2023-11-19T10:43:59;2.80;99.90
9329;DHT22;4703;48.748;19.142;2023-11-19T10:46:40;2.80;99.90
9329;DHT22;4703;48.748;19.142;2023-11-19T10:49:09;2.60;99.90
9329;DHT22;4703;48.748;19.142;2023-11-19T10:51:44;2.70;99.90
9329;DHT22;4703;48.748;19.142;2023-11-19T10:54:14;2.60;99.90
9329;DHT22;4703;48.748;19.142;2023-11-19T10:56:43;2.60;99.90
9329;DHT22;4703;48.748;19.142;2023-11-19T10:59:13;2.60;99.90
9329;DHT22;4703;48.748;19.142;2023-11-19T11:01:45;2.50;99.90
9329;DHT22;4703;48.748;19.142;2023-11-19T11:04:21;2.50;99.90
9329;DHT22;4703;48.748;19.142;2023-11-19T11:06:50;2.50;99.90
9329;DHT22;4703;48.748;19.142;2023-11-19T11:09:18;2.40;99.90
9329;DHT22;4703;48.748;19.142;2023-11-19T11:11:47;2.40;99.90
9329;DHT22;4703;48.748;19.142;2023-11-19T11:14:14;2.40;99.90
9329;DHT22;4703;48.748;19.142;2023-11-19T11:16:43;2.50;99.90
9329;DHT22;4703;48.748;19.142;2023-11-19T11:19:11;2.50;99.90
9329;DHT22;4703;48.748;19.142;2023-11-19T11:21:41;2.50;99.90
9329;DHT22;4703;48.748;19.142;2023-11-19T11:30:31;2.40;99.90
9329;DHT22;4703;48.748;19.142;2023-11-19T11:33:20;2.40;99.90
9329;DHT22;4703;48.748;19.142;2023-11-19T11:36:17;2.30;99.90
9329;DHT22;4703;48.748;19.142;2023-11-19T11:38:48;2.30;99.90
9329;DHT22;4703;48.748;19.142;2023-11-19T11:41:24;2.30;99.90
9329;DHT22;4703;48.748;19.142;2023-11-19T11:43:56;2.20;99.90
9329;DHT22;4703;48.748;19.142;2023-11-19T11:49:04;2.30;99.90
9329;DHT22;4703;48.748;19.142;2023-11-19T11:54:28;2.30;99.90
9329;DHT22;4703;48.748;19.142;2023-11-19T11:57:07;2.30;99.90
9329;DHT22;4703;48.748;19.142;2023-11-19T11:59:50;2.20;99.90
9329;DHT22;4703;48.748;19.142;2023-11-19T12:02:20;2.20;99.90
9329;DHT22;4703;48.748;19.142;2023-11-19T12:04:50;2.10;99.90
9329;DHT22;4703;48.748;19.142;2023-11-19T12:07:21;2.20;99.90
9329;DHT22;4703;48.748;19.142;2023-11-19T12:09:56;2.20;99.90
9329;DHT22;4703;48.748;19.142;2023-11-19T12:12:35;2.10;99.90
9329;DHT22;4703;48.748;19.142;2023-11-19T12:15:09;2.20;99.90
9329;DHT22;4703;48.748;19.142;2023-11-19T12:17:41;2.20;99.90
9329;DHT22;4703;48.748;19.142;2023-11-19T12:20:12;2.40;99.90
9329;DHT22;4703;48.748;19.142;2023-11-19T12:22:41;2.30;99.90
9329;DHT22;4703;48.748;19.142;2023-11-19T12:25:10;2.30;99.90
9329;DHT22;4703;48.748;19.142;2023-11-19T12:27:45;2.30;99.90
9329;DHT22;4703;48.748;19.142;2023-11-19T12:30:17;2.40;99.90
9329;DHT22;4703;48.748;19.142;2023-11-19T12:32:48;2.40;99.90
9329;DHT22;4703;48.748;19.142;2023-11-19T12:35:16;2.40;99.90
9329;DHT22;4703;48.748;19.142;2023-11-19T12:37:44;2.40;99.90
9329;DHT22;4703;48.748;19.142;2023-11-19T12:40:15;2.40;99.90
9329;DHT22;4703;48.748;19.142;2023-11-19T12:42:44;2.50;99.90
9329;DHT22;4703;48.748;19.142;2023-11-19T12:45:12;2.40;99.90
9329;DHT22;4703;48.748;19.142;2023-11-19T12:47:40;2.40;99.90
9329;DHT22;4703;48.748;19.142;2023-11-19T12:50:08;2.50;99.90
9329;DHT22;4703;48.748;19.142;2023-11-19T12:52:37;2.50;99.90
9329;DHT22;4703;48.748;19.142;2023-11-19T12:55:05;2.60;99.90
9329;DHT22;4703;48.748;19.142;2023-11-19T12:57:53;2.50;99.90
9329;DHT22;4703;48.748;19.142;2023-11-19T13:00:22;2.50;99.90
9329;DHT22;4703;48.748;19.142;2023-11-19T13:05:26;2.50;99.90
9329;DHT22;4703;48.748;19.142;2023-11-19T13:08:05;2.60;99.90
9329;DHT22;4703;48.748;19.142;2023-11-19T13:10:53;2.60;99.90
9329;DHT22;4703;48.748;19.142;2023-11-19T13:13:20;2.60;99.90
9329;DHT22;4703;48.748;19.142;2023-11-19T13:15:47;2.50;99.90
9329;DHT22;4703;48.748;19.142;2023-11-19T13:18:16;3.70;99.90
9329;DHT22;4703;48.748;19.142;2023-11-19T13:20:43;2.50;99.90
9329;DHT22;4703;48.748;19.142;2023-11-19T13:23:10;2.50;99.90
9329;DHT22;4703;48.748;19.142;2023-11-19T13:25:37;2.40;99.90
9329;DHT22;4703;48.748;19.142;2023-11-19T13:28:04;2.40;99.90
9329;DHT22;4703;48.748;19.142;2023-11-19T13:30:32;2.50;99.90
9329;DHT22;4703;48.748;19.142;2023-11-19T13:32:59;2.40;99.90
9329;DHT22;4703;48.748;19.142;2023-11-19T13:35:27;0.60;99.90
9329;DHT22;4703;48.748;19.142;2023-11-19T13:37:54;2.40;99.90
9329;DHT22;4703;48.748;19.142;2023-11-19T13:40:21;2.40;99.90
9329;DHT22;4703;48.748;19.142;2023-11-19T13:42:51;2.40;99.90
9329;DHT22;4703;48.748;19.142;2023-11-19T13:45:18;2.40;99.90
9329;DHT22;4703;48.748;19.142;2023-11-19T13:47:47;2.40;99.90
9329;DHT22;4703;48.748;19.142;2023-11-19T13:50:15;2.80;99.90
9329;DHT22;4703;48.748;19.142;2023-11-19T13:52:44;3.80;99.90
9329;DHT22;4703;48.748;19.142;2023-11-19T13:55:14;2.30;99.90
9329;DHT22;4703;48.748;19.142;2023-11-19T13:57:42;2.40;99.90
9329;DHT22;4703;48.748;19.142;2023-11-19T14:00:11;2.40;99.90
9329;DHT22;4703;48.748;19.142;2023-11-19T14:02:40;2.40;99.90
9329;DHT22;4703;48.748;19.142;2023-11-19T14:05:09;2.40;99.90
9329;DHT22;4703;48.748;19.142;2023-11-19T14:07:38;4.30;99.90
9329;DHT22;4703;48.748;19.142;2023-11-19T14:10:06;2.40;99.90
9329;DHT22;4703;48.748;19.142;2023-11-19T14:12:36;2.30;99.90
9329;DHT22;4703;48.748;19.142;2023-11-19T14:15:08;2.30;99.90
9329;DHT22;4703;48.748;19.142;2023-11-19T14:17:44;2.40;99.90
9329;DHT22;4703;48.748;19.142;2023-11-19T14:20:11;2.40;99.90
9329;DHT22;4703;48.748;19.142;2023-11-19T14:22:43;4.70;99.90
9329;DHT22;4703;48.748;19.142;2023-11-19T14:25:11;2.40;99.90
9329;DHT22;4703;48.748;19.142;2023-11-19T14:27:39;2.40;99.90
9329;DHT22;4703;48.748;19.142;2023-11-19T14:30:09;2.40;99.90
9329;DHT22;4703;48.748;19.142;2023-11-19T14:32:41;2.40;99.90
9329;DHT22;4703;48.748;19.142;2023-11-19T14:35:10;2.40;99.90
9329;DHT22;4703;48.748;19.142;2023-11-19T14:37:38;2.40;99.90
9329;DHT22;4703;48.748;19.142;2023-11-19T14:40:05;2.40;99.90
9329;DHT22;4703;48.748;19.142;2023-11-19T14:42:35;2.40;99.90
9329;DHT22;4703;48.748;19.142;2023-11-19T14:45:03;2.40;99.90
9329;DHT22;4703;48.748;19.142;2023-11-19T14:47:32;2.40;99.90
9329;DHT22;4703;48.748;19.142;2023-11-19T14:49:59;2.40;99.90
9329;DHT22;4703;48.748;19.142;2023-11-19T14:52:27;2.30;99.90
9329;DHT22;4703;48.748;19.142;2023-11-19T14:54:54;2.30;99.90
9329;DHT22;4703;48.748;19.142;2023-11-19T14:57:23;2.30;99.90
9329;DHT22;4703;48.748;19.142;2023-11-19T14:59:50;4.40;99.90
9329;DHT22;4703;48.748;19.142;2023-11-19T15:02:17;2.30;99.90
9329;DHT22;4703;48.748;19.142;2023-11-19T15:04:44;2.30;99.90
9329;DHT22;4703;48.748;19.142;2023-11-19T15:07:12;5.40;99.90
9329;DHT22;4703;48.748;19.142;2023-11-19T15:09:39;2.20;99.90
9329;DHT22;4703;48.748;19.142;2023-11-19T15:12:08;2.20;99.90
9329;DHT22;4703;48.748;19.142;2023-11-19T15:14:36;2.20;99.90
9329;DHT22;4703;48.748;19.142;2023-11-19T15:17:03;2.20;99.90
9329;DHT22;4703;48.748;19.142;2023-11-19T15:19:30;2.10;99.90
9329;DHT22;4703;48.748;19.142;2023-11-19T15:21:57;2.10;99.90
9329;DHT22;4703;48.748;19.142;2023-11-19T15:24:24;2.10;99.90
9329;DHT22;4703;48.748;19.142;2023-11-19T15:26:52;2.10;99.90
9329;DHT22;4703;48.748;19.142;2023-11-19T15:29:19;2.20;99.90
9329;DHT22;4703;48.748;19.142;2023-11-19T15:31:48;2.20;99.90
9329;DHT22;4703;48.748;19.142;2023-11-19T15:34:15;2.20;99.90
9329;DHT22;4703;48.748;19.142;2023-11-19T15:36:42;2.20;99.90
9329;DHT22;4703;48.748;19.142;2023-11-19T15:39:10;2.20;99.90
9329;DHT22;4703;48.748;19.142;2023-11-19T15:41:37;2.10;99.90
9329;DHT22;4703;48.748;19.142;2023-11-19T15:44:07;2.10;99.90
9329;DHT22;4703;48.748;19.142;2023-11-19T15:46:34;2.10;99.90
9329;DHT22;4703;48.748;19.142;2023-11-19T15:49:01;2.10;99.90
9329;DHT22;4703;48.748;19.142;2023-11-19T15:51:29;2.10;99.90
9329;DHT22;4703;48.748;19.142;2023-11-19T15:53:56;2.10;99.90
9329;DHT22;4703;48.748;19.142;2023-11-19T15:56:23;4.10;99.90
9329;DHT22;4703;48.748;19.142;2023-11-19T15:58:50;2.20;99.90
9329;DHT22;4703;48.748;19.142;2023-11-19T16:01:17;2.20;99.90
9329;DHT22;4703;48.748;19.142;2023-11-19T16:03:44;2.20;99.90
9329;DHT22;4703;48.748;19.142;2023-11-19T16:06:15;2.20;99.90
9329;DHT22;4703;48.748;19.142;2023-11-19T16:08:42;2.20;99.90
9329;DHT22;4703;48.748;19.142;2023-11-19T16:11:10;4.70;99.90
9329;DHT22;4703;48.748;19.142;2023-11-19T16:13:37;2.20;99.90
9329;DHT22;4703;48.748;19.142;2023-11-19T16:16:04;4.30;99.90
9329;DHT22;4703;48.748;19.142;2023-11-19T16:18:33;2.20;99.90
9329;DHT22;4703;48.748;19.142;2023-11-19T16:21:00;2.10;99.90
9329;DHT22;4703;48.748;19.142;2023-11-19T16:23:28;2.20;99.90
9329;DHT22;4703;48.748;19.142;2023-11-19T16:25:55;2.20;99.90